createdAt,value
2019-01-27T00:00:01.169Z,100.00
2019-01-27T00:02:30.303Z,100.00
2019-01-27T00:04:59.918Z,100.00
2019-01-27T00:07:29.172Z,100.00
2019-01-27T00:09:58.274Z,100.00
2019-01-27T00:12:27.458Z,100.00
2019-01-27T00:14:56.553Z,100.00
2019-01-27T00:17:25.713Z,100.00
2019-01-27T00:19:55.487Z,100.00
2019-01-27T00:22:24.929Z,100.00
2019-01-27T00:24:54.105Z,100.00
2019-01-27T00:27:23.356Z,100.00
2019-01-27T00:29:52.834Z,100.00
2019-01-27T00:32:21.945Z,100.00
2019-01-27T00:34:51.241Z,100.00
2019-01-27T00:37:20.359Z,100.00
2019-01-27T00:39:49.450Z,100.00
2019-01-27T00:42:18.564Z,100.00
2019-01-27T00:44:47.698Z,100.00
2019-01-27T00:47:16.841Z,100.00
2019-01-27T00:49:45.973Z,100.00
2019-01-27T00:52:15.063Z,100.00
2019-01-27T00:54:44.259Z,100.00
2019-01-27T00:57:13.376Z,100.00
2019-01-27T00:59:42.508Z,100.00
2019-01-27T01:02:11.613Z,100.00
2019-01-27T01:04:40.771Z,100.00
2019-01-27T01:07:10.019Z,100.00
2019-01-27T01:09:39.162Z,100.00
2019-01-27T01:12:08.258Z,100.00
2019-01-27T01:14:37.404Z,100.00
2019-01-27T01:17:06.656Z,100.00
2019-01-27T01:19:36.113Z,100.00
2019-01-27T01:22:05.661Z,100.00
2019-01-27T01:24:34.828Z,100.00
2019-01-27T01:27:03.949Z,100.00
2019-01-27T01:29:33.080Z,100.00
2019-01-27T01:32:02.216Z,100.00
2019-01-27T01:34:31.371Z,100.00
2019-01-27T01:37:00.525Z,100.00
2019-01-27T01:39:29.692Z,100.00
2019-01-27T01:41:59.123Z,100.00
2019-01-27T01:44:28.560Z,100.00
2019-01-27T01:46:57.831Z,100.00
2019-01-27T01:49:26.973Z,100.00
2019-01-27T01:51:56.112Z,100.00
2019-01-27T01:54:25.241Z,100.00
2019-01-27T01:56:54.362Z,100.00
2019-01-27T01:59:23.514Z,100.00
2019-01-27T02:01:52.612Z,100.00
2019-01-27T02:04:21.721Z,100.00
2019-01-27T02:06:50.827Z,100.00
2019-01-27T02:09:19.971Z,100.00
2019-01-27T02:11:49.174Z,100.00
2019-01-27T02:14:18.367Z,100.00
2019-01-27T02:16:47.484Z,100.00
2019-01-27T02:19:16.675Z,100.00
2019-01-27T02:21:47.171Z,100.00
2019-01-27T02:24:16.325Z,100.00
2019-01-27T02:26:45.484Z,100.00
2019-01-27T02:29:14.617Z,100.00
2019-01-27T02:31:43.748Z,100.00
2019-01-27T02:34:12.882Z,100.00
2019-01-27T02:36:42.044Z,100.00
2019-01-27T02:39:11.166Z,100.00
2019-01-27T02:41:40.297Z,100.00
2019-01-27T02:44:09.405Z,100.00
2019-01-27T02:46:38.537Z,100.00
2019-01-27T02:49:07.792Z,100.00
2019-01-27T02:51:36.901Z,100.00
2019-01-27T02:54:06.560Z,100.00
2019-01-27T02:56:35.695Z,100.00
2019-01-27T02:59:05.136Z,100.00
2019-01-27T03:01:34.239Z,100.00
2019-01-27T03:04:03.535Z,100.00
2019-01-27T03:06:51.622Z,100.00
2019-01-27T03:09:24.058Z,100.00
2019-01-27T03:11:53.238Z,100.00
2019-01-27T03:14:22.667Z,100.00
2019-01-27T03:16:53.370Z,100.00
2019-01-27T03:19:22.908Z,100.00
2019-01-27T03:21:52.002Z,100.00
2019-01-27T03:24:21.170Z,100.00
2019-01-27T03:26:50.397Z,100.00
2019-01-27T03:29:19.535Z,100.00
2019-01-27T03:31:48.676Z,100.00
2019-01-27T03:34:17.803Z,100.00
2019-01-27T03:36:46.937Z,100.00
2019-01-27T03:39:16.307Z,100.00
2019-01-27T03:41:45.446Z,100.00
2019-01-27T03:44:14.653Z,100.00
2019-01-27T03:46:43.726Z,100.00
2019-01-27T03:49:12.850Z,100.00
2019-01-27T03:51:41.983Z,100.00
2019-01-27T03:54:11.226Z,100.00
2019-01-27T03:56:40.505Z,100.00
2019-01-27T03:59:09.680Z,100.00
2019-01-27T04:01:38.779Z,100.00
2019-01-27T04:04:08.219Z,100.00
2019-01-27T04:06:37.312Z,100.00
2019-01-27T04:09:09.505Z,100.00
2019-01-27T04:11:38.608Z,100.00
2019-01-27T04:14:07.944Z,100.00
2019-01-27T04:16:37.066Z,100.00
2019-01-27T04:19:06.202Z,100.00
2019-01-27T04:21:35.314Z,100.00
2019-01-27T04:24:04.780Z,100.00
2019-01-27T04:26:34.143Z,100.00
2019-01-27T04:29:03.617Z,100.00
2019-01-27T04:31:32.769Z,100.00
2019-01-27T04:34:01.919Z,100.00
2019-01-27T04:36:31.014Z,100.00
2019-01-27T04:39:00.253Z,100.00
2019-01-27T04:41:29.358Z,100.00
2019-01-27T04:43:58.511Z,100.00
2019-01-27T04:46:27.657Z,100.00
2019-01-27T04:48:56.820Z,100.00
2019-01-27T04:51:25.936Z,100.00
2019-01-27T04:53:55.056Z,100.00
2019-01-27T04:56:24.187Z,100.00
2019-01-27T04:58:53.283Z,100.00
2019-01-27T05:01:22.710Z,100.00
2019-01-27T05:04:02.679Z,100.00
2019-01-27T05:06:31.813Z,100.00
2019-01-27T05:09:01.030Z,100.00
2019-01-27T05:11:30.189Z,100.00
2019-01-27T05:13:59.334Z,100.00
2019-01-27T05:16:28.474Z,100.00
2019-01-27T05:18:57.583Z,100.00
2019-01-27T05:21:26.848Z,100.00
2019-01-27T05:23:55.964Z,100.00
2019-01-27T05:26:25.515Z,100.00
2019-01-27T05:28:54.682Z,100.00
2019-01-27T05:31:23.822Z,100.00
2019-01-27T05:33:52.916Z,100.00
2019-01-27T05:36:22.064Z,100.00
2019-01-27T05:38:51.588Z,100.00
2019-01-27T05:41:20.782Z,100.00
2019-01-27T05:43:49.899Z,100.00
2019-01-27T05:46:19.141Z,100.00
2019-01-27T05:48:48.288Z,100.00
2019-01-27T05:51:17.469Z,100.00
2019-01-27T05:53:46.938Z,100.00
2019-01-27T05:56:16.055Z,100.00
2019-01-27T05:58:45.305Z,100.00
2019-01-27T06:01:14.419Z,100.00
2019-01-27T06:03:43.606Z,100.00
2019-01-27T06:06:12.837Z,100.00
2019-01-27T06:08:41.989Z,100.00
2019-01-27T06:11:11.078Z,100.00
2019-01-27T06:13:40.242Z,100.00
2019-01-27T06:16:09.332Z,100.00
2019-01-27T06:18:38.478Z,100.00
2019-01-27T06:21:07.593Z,100.00
2019-01-27T06:23:37.058Z,100.00
2019-01-27T06:26:06.192Z,100.00
2019-01-27T06:28:35.354Z,100.00
2019-01-27T06:31:04.425Z,100.00
2019-01-27T06:33:44.711Z,100.00
2019-01-27T06:36:13.828Z,100.00
2019-01-27T06:38:42.976Z,100.00
2019-01-27T06:41:12.074Z,100.00
2019-01-27T06:43:41.533Z,100.00
2019-01-27T06:46:10.677Z,100.00
2019-01-27T06:48:39.881Z,100.00
2019-01-27T06:51:09.018Z,100.00
2019-01-27T06:53:38.167Z,100.00
2019-01-27T06:56:07.250Z,100.00
2019-01-27T06:58:54.513Z,100.00
2019-01-27T07:01:45.789Z,100.00
2019-01-27T07:04:42.955Z,100.00
2019-01-27T07:07:35.205Z,100.00
2019-01-27T07:10:25.467Z,100.00
2019-01-27T07:13:18.394Z,100.00
2019-01-27T07:16:00.914Z,100.00
2019-01-27T07:18:39.193Z,100.00
2019-01-27T07:21:15.368Z,100.00
2019-01-27T07:24:03.643Z,100.00
2019-01-27T07:26:50.461Z,100.00
2019-01-27T07:29:53.997Z,100.00
2019-01-27T07:32:51.573Z,100.00
2019-01-27T07:35:42.788Z,100.00
2019-01-27T07:38:26.246Z,100.00
2019-01-27T07:41:13.613Z,100.00
2019-01-27T07:43:49.597Z,100.00
2019-01-27T07:46:50.040Z,100.00
2019-01-27T07:49:50.390Z,100.00
2019-01-27T07:52:38.406Z,100.00
2019-01-27T07:55:35.720Z,100.00
2019-01-27T07:58:27.646Z,100.00
2019-01-27T08:01:16.102Z,100.00
2019-01-27T08:03:57.373Z,100.00
2019-01-27T08:06:45.758Z,100.00
2019-01-27T08:09:22.987Z,100.00
2019-01-27T08:12:14.184Z,100.00
2019-01-27T08:15:14.524Z,100.00
2019-01-27T08:18:05.712Z,100.00
2019-01-27T08:20:49.510Z,100.00
2019-01-27T08:23:34.997Z,100.00
2019-01-27T08:26:22.437Z,100.00
2019-01-27T08:28:59.492Z,100.00
2019-01-27T08:31:39.579Z,100.00
2019-01-27T08:34:26.722Z,100.00
2019-01-27T08:37:17.811Z,100.00
2019-01-27T08:40:15.629Z,100.00
2019-01-27T08:43:09.745Z,100.00
2019-01-27T08:45:46.705Z,100.00
2019-01-27T08:48:16.281Z,100.00
2019-01-27T08:50:45.471Z,100.00
2019-01-27T08:53:14.582Z,100.00
2019-01-27T08:55:43.733Z,100.00
2019-01-27T08:58:12.950Z,100.00
2019-01-27T09:00:46.652Z,100.00
2019-01-27T09:03:22.369Z,100.00
2019-01-27T09:06:14.756Z,100.00
2019-01-27T09:09:06.322Z,100.00
2019-01-27T09:11:53.275Z,100.00
2019-01-27T09:14:41.817Z,100.00
2019-01-27T09:17:36.154Z,100.00
2019-01-27T09:20:32.041Z,100.00
2019-01-27T09:23:34.060Z,100.00
2019-01-27T09:26:27.878Z,100.00
2019-01-27T09:29:22.990Z,100.00
2019-01-27T09:32:10.014Z,100.00
2019-01-27T09:35:00.879Z,100.00
2019-01-27T09:37:44.775Z,100.00
2019-01-27T09:40:33.539Z,100.00
2019-01-27T09:43:24.743Z,100.00
2019-01-27T09:46:21.875Z,100.00
2019-01-27T09:49:28.735Z,100.00
2019-01-27T09:52:04.591Z,100.00
2019-01-27T09:54:52.995Z,100.00
2019-01-27T09:57:47.405Z,100.00
2019-01-27T10:00:41.901Z,100.00
2019-01-27T10:03:17.337Z,100.00
2019-01-27T10:06:05.455Z,100.00
2019-01-27T10:09:05.808Z,100.00
2019-01-27T10:11:52.928Z,100.00
2019-01-27T10:14:41.090Z,100.00
2019-01-27T10:17:23.975Z,100.00
2019-01-27T10:20:24.370Z,100.00
2019-01-27T10:23:25.097Z,100.00
2019-01-27T10:26:34.049Z,100.00
2019-01-27T10:29:24.121Z,100.00
2019-01-27T10:32:12.275Z,100.00
2019-01-27T10:35:16.109Z,100.00
2019-01-27T10:38:04.491Z,100.00
2019-01-27T10:40:39.637Z,100.00
2019-01-27T10:43:15.085Z,100.00
2019-01-27T10:46:06.434Z,100.00
2019-01-27T10:48:57.719Z,100.00
2019-01-27T10:51:42.484Z,100.00
2019-01-27T10:54:55.041Z,100.00
2019-01-27T10:57:36.100Z,100.00
2019-01-27T11:00:31.274Z,100.00
2019-01-27T11:03:14.255Z,100.00
2019-01-27T11:05:51.009Z,100.00
2019-01-27T11:08:39.148Z,100.00
2019-01-27T11:11:43.045Z,99.84
2019-01-27T11:14:20.302Z,98.83
2019-01-27T11:17:08.444Z,98.87
2019-01-27T11:19:43.617Z,98.74
2019-01-27T11:22:37.801Z,98.45
2019-01-27T11:25:36.596Z,98.68
2019-01-27T11:28:40.409Z,98.34
2019-01-27T11:31:34.853Z,97.23
2019-01-27T11:34:11.659Z,97.64
2019-01-27T11:36:52.601Z,97.87
2019-01-27T11:39:39.681Z,98.11
2019-01-27T11:42:28.013Z,98.14
2019-01-27T11:45:19.295Z,98.36
2019-01-27T11:48:16.492Z,98.00
2019-01-27T11:50:50.390Z,97.41
2019-01-27T11:53:19.883Z,97.58
2019-01-27T11:55:49.064Z,97.46
2019-01-27T11:58:18.235Z,97.37
2019-01-27T12:00:51.273Z,97.78
2019-01-27T12:03:20.913Z,96.98
2019-01-27T12:05:49.972Z,97.43
2019-01-27T12:08:19.445Z,97.95
2019-01-27T12:10:48.678Z,98.55
2019-01-27T12:13:17.835Z,98.21
2019-01-27T12:15:47.022Z,97.64
2019-01-27T12:18:16.183Z,97.76
2019-01-27T12:20:45.281Z,96.99
2019-01-27T12:23:14.468Z,96.93
2019-01-27T12:25:43.607Z,96.71
2019-01-27T12:28:12.887Z,96.36
2019-01-27T12:30:42.029Z,95.77
2019-01-27T12:33:11.182Z,95.59
2019-01-27T12:35:40.891Z,94.67
2019-01-27T12:38:10.493Z,94.65
2019-01-27T12:40:39.640Z,94.49
2019-01-27T12:43:08.890Z,94.16
2019-01-27T12:45:38.486Z,93.94
2019-01-27T12:48:07.776Z,94.52
2019-01-27T12:50:37.204Z,95.09
2019-01-27T12:53:09.552Z,94.24
2019-01-27T12:55:38.691Z,94.20
2019-01-27T12:58:08.363Z,94.91
2019-01-27T13:01:07.665Z,94.40
2019-01-27T13:03:36.858Z,93.89
2019-01-27T13:06:07.053Z,94.94
2019-01-27T13:08:36.437Z,94.55
2019-01-27T13:11:05.946Z,93.75
2019-01-27T13:13:36.846Z,95.17
2019-01-27T13:16:06.218Z,94.83
2019-01-27T13:18:35.665Z,95.27
2019-01-27T13:21:04.778Z,95.62
2019-01-27T13:23:34.214Z,96.26
2019-01-27T13:26:03.943Z,97.13
2019-01-27T13:28:33.345Z,96.82
2019-01-27T13:31:02.960Z,97.09
2019-01-27T13:33:32.125Z,97.31
2019-01-27T13:36:01.292Z,97.37
2019-01-27T13:38:30.829Z,97.41
2019-01-27T13:41:00.060Z,97.81
2019-01-27T13:43:29.205Z,98.09
2019-01-27T13:45:58.486Z,97.83
2019-01-27T13:48:27.646Z,97.62
2019-01-27T13:50:56.790Z,98.28
2019-01-27T13:53:26.076Z,99.03
2019-01-27T13:55:55.302Z,99.56
2019-01-27T13:58:24.440Z,99.76
2019-01-27T14:00:53.552Z,99.59
2019-01-27T14:03:22.750Z,99.94
2019-01-27T14:05:51.844Z,100.00
2019-01-27T14:08:21.044Z,100.00
2019-01-27T14:10:50.581Z,100.00
2019-01-27T14:13:19.789Z,100.00
2019-01-27T14:15:49.180Z,100.00
2019-01-27T14:18:18.352Z,100.00
2019-01-27T14:20:47.587Z,100.00
2019-01-27T14:23:17.024Z,100.00
2019-01-27T14:25:46.151Z,100.00
2019-01-27T14:28:15.393Z,100.00
2019-01-27T14:30:44.915Z,100.00
2019-01-27T14:33:14.041Z,100.00
2019-01-27T14:35:43.310Z,100.00
2019-01-27T14:38:12.677Z,100.00
2019-01-27T14:40:42.271Z,100.00
2019-01-27T14:43:11.786Z,100.00
2019-01-27T14:45:41.146Z,100.00
2019-01-27T14:48:10.261Z,100.00
2019-01-27T14:50:42.552Z,100.00
2019-01-27T14:53:12.040Z,100.00
2019-01-27T14:55:41.244Z,100.00
2019-01-27T14:58:10.822Z,100.00
2019-01-27T15:00:41.813Z,100.00
2019-01-27T15:03:12.009Z,100.00
2019-01-27T15:05:41.125Z,100.00
2019-01-27T15:08:10.681Z,100.00
2019-01-27T15:10:41.521Z,100.00
2019-01-27T15:13:10.789Z,100.00
2019-01-27T15:15:40.020Z,100.00
2019-01-27T15:18:09.581Z,100.00
2019-01-27T15:20:42.017Z,100.00
2019-01-27T15:23:11.222Z,100.00
2019-01-27T15:25:40.414Z,100.00
2019-01-27T15:28:09.593Z,100.00
2019-01-27T15:30:39.038Z,100.00
2019-01-27T15:33:14.333Z,100.00
2019-01-27T15:35:43.677Z,100.00
2019-01-27T15:38:12.791Z,100.00
2019-01-27T15:40:42.189Z,100.00
2019-01-27T15:43:11.316Z,100.00
2019-01-27T15:45:40.749Z,100.00
2019-01-27T15:48:09.861Z,100.00
2019-01-27T15:50:39.135Z,100.00
2019-01-27T15:53:08.313Z,100.00
2019-01-27T15:55:37.839Z,100.00
2019-01-27T15:58:07.125Z,100.00
2019-01-27T16:00:36.336Z,100.00
2019-01-27T16:03:05.729Z,100.00
2019-01-27T16:05:35.167Z,100.00
2019-01-27T16:08:05.075Z,100.00
2019-01-27T16:10:34.226Z,100.00
2019-01-27T16:13:03.470Z,100.00
2019-01-27T16:15:33.593Z,100.00
2019-01-27T16:18:02.840Z,100.00
2019-01-27T16:20:31.992Z,100.00
2019-01-27T16:23:26.420Z,100.00
2019-01-27T16:25:56.435Z,100.00
2019-01-27T16:28:25.605Z,100.00
2019-01-27T16:31:05.657Z,100.00
2019-01-27T16:33:53.749Z,100.00
2019-01-27T16:36:22.968Z,100.00
2019-01-27T16:38:52.175Z,100.00
2019-01-27T16:41:21.508Z,100.00
2019-01-27T16:43:51.414Z,100.00
2019-01-27T16:46:20.752Z,100.00
2019-01-27T16:48:53.349Z,100.00
2019-01-27T16:51:22.470Z,100.00
2019-01-27T16:53:51.747Z,100.00
2019-01-27T16:56:20.920Z,100.00
2019-01-27T16:58:50.359Z,100.00
2019-01-27T17:01:20.218Z,100.00
2019-01-27T17:03:49.456Z,100.00
2019-01-27T17:06:19.093Z,100.00
2019-01-27T17:08:48.267Z,100.00
2019-01-27T17:11:17.424Z,100.00
2019-01-27T17:13:46.631Z,100.00
2019-01-27T17:16:15.790Z,100.00
2019-01-27T17:18:48.661Z,100.00
2019-01-27T17:21:17.800Z,100.00
2019-01-27T17:23:46.951Z,100.00
2019-01-27T17:26:16.106Z,100.00
2019-01-27T17:28:45.315Z,100.00
2019-01-27T17:31:14.521Z,100.00
2019-01-27T17:33:43.683Z,100.00
2019-01-27T17:36:12.789Z,100.00
2019-01-27T17:38:41.971Z,100.00
2019-01-27T17:41:11.103Z,100.00
2019-01-27T17:43:40.350Z,100.00
2019-01-27T17:46:09.546Z,100.00
2019-01-27T17:48:38.659Z,100.00
2019-01-27T17:51:08.810Z,100.00
2019-01-27T17:53:51.737Z,100.00
2019-01-27T17:56:21.294Z,100.00
2019-01-27T17:58:56.456Z,100.00
2019-01-27T18:01:50.459Z,100.00
2019-01-27T18:04:39.416Z,100.00
2019-01-27T18:07:27.699Z,100.00
2019-01-27T18:10:03.021Z,100.00
2019-01-27T18:12:40.583Z,100.00
2019-01-27T18:15:10.259Z,100.00
2019-01-27T18:17:40.047Z,100.00
2019-01-27T18:20:12.154Z,100.00
2019-01-27T18:22:41.495Z,100.00
2019-01-27T18:25:12.138Z,100.00
2019-01-27T18:27:41.415Z,100.00
2019-01-27T18:30:15.090Z,100.00
2019-01-27T18:32:44.226Z,100.00
2019-01-27T18:35:13.376Z,100.00
2019-01-27T18:37:42.638Z,100.00
2019-01-27T18:40:12.170Z,100.00
2019-01-27T18:42:41.381Z,100.00
2019-01-27T18:45:12.307Z,100.00
2019-01-27T18:47:41.458Z,100.00
2019-01-27T18:50:13.211Z,100.00
2019-01-27T18:52:42.647Z,100.00
2019-01-27T18:55:26.551Z,100.00
2019-01-27T18:58:04.765Z,100.00
2019-01-27T19:00:51.786Z,100.00
2019-01-27T19:03:26.670Z,100.00
2019-01-27T19:06:02.123Z,100.00
2019-01-27T19:08:50.319Z,100.00
2019-01-27T19:11:35.713Z,100.00
2019-01-27T19:14:26.915Z,100.00
2019-01-27T19:17:27.115Z,100.00
2019-01-27T19:20:14.154Z,100.00
2019-01-27T19:23:02.367Z,100.00
2019-01-27T19:25:45.159Z,100.00
2019-01-27T19:28:27.816Z,100.00
2019-01-27T19:31:19.009Z,100.00
2019-01-27T19:34:25.981Z,100.00
2019-01-27T19:37:16.885Z,100.00
2019-01-27T19:40:04.077Z,100.00
2019-01-27T19:42:51.451Z,100.00
2019-01-27T19:45:30.141Z,100.00
2019-01-27T19:48:17.226Z,100.00
2019-01-27T19:51:11.197Z,100.00
2019-01-27T19:53:55.926Z,100.00
2019-01-27T19:56:44.644Z,100.00
2019-01-27T19:59:26.096Z,100.00
2019-01-27T20:02:17.056Z,100.00
2019-01-27T20:05:05.174Z,100.00
2019-01-27T20:07:52.258Z,100.00
2019-01-27T20:10:39.107Z,100.00
2019-01-27T20:13:33.089Z,100.00
2019-01-27T20:16:14.033Z,100.00
2019-01-27T20:18:52.396Z,100.00
2019-01-27T20:21:43.962Z,100.00
2019-01-27T20:24:31.788Z,100.00
2019-01-27T20:27:08.139Z,100.00
2019-01-27T20:30:04.678Z,100.00
2019-01-27T20:32:59.042Z,100.00
2019-01-27T20:35:46.205Z,100.00
2019-01-27T20:38:32.564Z,100.00
2019-01-27T20:41:22.495Z,100.00
2019-01-27T20:43:59.467Z,100.00
2019-01-27T20:46:35.006Z,100.00
2019-01-27T20:49:21.860Z,100.00
2019-01-27T20:52:11.064Z,100.00
2019-01-27T20:54:59.287Z,100.00
2019-01-27T20:57:42.640Z,100.00
2019-01-27T21:00:23.129Z,100.00
2019-01-27T21:03:23.692Z,100.00
2019-01-27T21:06:11.080Z,100.00
2019-01-27T21:08:49.075Z,100.00
2019-01-27T21:11:37.297Z,100.00
2019-01-27T21:14:24.401Z,100.00
2019-01-27T21:17:17.845Z,100.00
2019-01-27T21:19:53.647Z,100.00
2019-01-27T21:22:22.747Z,100.00
2019-01-27T21:24:51.951Z,100.00
2019-01-27T21:27:21.159Z,100.00
2019-01-27T21:29:50.334Z,100.00
2019-01-27T21:32:20.276Z,100.00
2019-01-27T21:34:49.433Z,100.00
2019-01-27T21:37:18.606Z,100.00
2019-01-27T21:39:47.736Z,100.00
2019-01-27T21:42:17.093Z,100.00
2019-01-27T21:44:46.196Z,100.00
2019-01-27T21:47:15.353Z,100.00
2019-01-27T21:49:44.527Z,100.00
2019-01-27T21:52:13.767Z,100.00
2019-01-27T21:54:43.186Z,100.00
2019-01-27T21:57:12.332Z,100.00
2019-01-27T21:59:41.493Z,100.00
2019-01-27T22:02:10.835Z,100.00
2019-01-27T22:04:41.034Z,100.00
2019-01-27T22:07:10.206Z,100.00
2019-01-27T22:09:39.353Z,100.00
2019-01-27T22:12:08.473Z,100.00
2019-01-27T22:14:37.685Z,100.00
2019-01-27T22:17:34.129Z,100.00
